Effective Sunday, March 17, 2024, the National Weather Service National Data Buoy Center will discontinue its Dial-A-Buoy Interactive Voice Response system. For more information, see Service Change Notice 24-06 (PDF).

Station PRUR1 - 8452314 - Sandy Point, Prudence Island, RI Image indicating link to RSS feed of recent meteorological observations for station PRUR1


Conditions at PRUR1 as of
(7:48 am EST)
1248 GMT on 02/23/2024:
     

Click on the graph icon in the table below to see a time series plot of the last five days of that observation.

5-day plot - Air Temperature Air Temperature (ATMP): 42.4 °F
5-day plot - Dew Point Dew Point (DEWP): 40.1 °F
5-day plot - Visibility Visibility (VIS): 5.9 nmi
NOS Water Level Observation Network Water Level
Previous observations
TIME
(EST)
5-day plot - Wind Direction
WDIR
 
5-day plot - Wind Speed
WSPD
kts
5-day plot - Wind Gust
GST
kts
5-day plot - Wave Height
WVHT
ft
5-day plot - Dominant Wave Period
DPD
sec
5-day plot - Average Wave Period
APD
sec
5-day plot - Mean Wave Direction
MWD
 
5-day plot - Atmospheric Pressure
PRES
in
5-day plot - Pressure Tendency
PTDY
in
5-day plot - Air Temperature
ATMP
°F
5-day plot - Water Temperature
WTMP
°F
5-day plot - Dew Point
DEWP
°F
5-day plot - Salinity
SAL
psu
5-day plot - Visibility
VIS
nmi
5-day plot - Tide (above MLLW)
TIDE
ft
2024-02-23 07:42 am--------- 42.3- 40.1- 5.9-
2024-02-23 07:36 am--------- 42.3- 40.3- 5.9-
2024-02-23 07:30 am--------- 42.1- 40.1- 5.9-
2024-02-23 07:24 am--------- 41.9- 39.9- 5.9-
2024-02-23 07:18 am--------- 41.9- 39.7- 5.9-
2024-02-23 07:12 am--------- 41.7- 39.9- 5.9-
2024-02-23 07:06 am--------- 41.2- 39.6- 5.9-
2024-02-23 07:00 am--------- 41.4- 39.6- 5.9-
2024-02-23 06:54 am--------- 41.2- 39.4- 5.9-
2024-02-23 06:48 am--------- 41.4- 39.6- 5.9-
2024-02-23 06:42 am--------- 41.4- 39.4- 5.9-
2024-02-23 06:36 am--------- 41.4- 39.4- 5.9-
2024-02-23 06:30 am--------- 41.7- 39.7- 5.9-
2024-02-23 06:24 am--------- 41.5- 39.6- 5.9-
2024-02-23 06:18 am--------- 41.4- 39.6- 5.9-
2024-02-23 06:12 am--------- 41.2- 39.4- 5.9-
2024-02-23 06:06 am--------- 40.8- 39.0- 5.9-
2024-02-23 06:00 am--------- 40.8- 39.0- 5.9-
2024-02-23 05:54 am--------- 41.0- 39.2- 5.9-
2024-02-23 05:48 am--------- 41.0- 39.0- 5.9-
2024-02-23 05:42 am--------- 41.0- 39.2- 5.9-
2024-02-23 05:36 am--------- 40.8- 38.8- 5.9-
2024-02-23 05:30 am--------- 41.0- 39.0- 5.9-
2024-02-23 05:24 am--------- 40.8- 39.0- 5.9-
2024-02-23 05:18 am--------- 40.8- 39.0- 5.9-
2024-02-23 05:12 am--------- 40.8- 39.0- 5.9-
2024-02-23 05:06 am--------- 40.8- 38.8- 5.9-
2024-02-23 05:00 am--------- 40.6- 38.8- 5.9-
2024-02-23 04:54 am--------- 40.3- 38.8- 5.9-
2024-02-23 04:48 am--------- 40.3- 38.7- 5.9-
2024-02-23 04:42 am--------- 40.3- 38.7- 5.9-
2024-02-23 04:36 am--------- 40.1- 38.7- 5.9-
2024-02-23 04:30 am--------- 39.9- 38.7- 5.9-
2024-02-23 04:24 am--------- 39.9- 38.5- 5.9-
2024-02-23 04:18 am--------- 39.9- 38.5- 5.9-
2024-02-23 04:12 am--------- 39.9- 38.5- 5.9-
2024-02-23 04:06 am--------- 39.7- 38.5- 5.9-
2024-02-23 04:00 am--------- 39.7- 38.3- 5.9-
2024-02-23 03:54 am--------- 39.7- 38.3- 5.9-
2024-02-23 03:48 am--------- 39.6- 38.1- 5.9-
2024-02-23 03:42 am--------- 39.6- 38.1- 5.9-
2024-02-23 03:36 am--------- 39.6- 38.3- 5.9-
2024-02-23 03:30 am--------- 39.6- 38.3- 5.9-
2024-02-23 03:24 am--------- 39.6- 38.1- 5.9-
2024-02-23 03:18 am--------- 39.6- 38.1- 5.9-
2024-02-23 03:12 am--------- 39.6- 38.1- 5.9-
2024-02-23 03:06 am--------- 39.7- 38.1- 5.9-
2024-02-23 03:00 am--------- 39.7- 38.1- 5.9-
2024-02-23 02:54 am--------- 39.7- 38.1- 5.9-
2024-02-23 02:48 am--------- 39.7- 37.9- 5.9-
2024-02-23 02:42 am--------- 39.7- 37.9- 5.9-
2024-02-23 02:36 am--------- 39.7- 37.9- 5.9-
2024-02-23 02:30 am--------- 39.7- 37.8- 5.9-
2024-02-23 02:24 am--------- 39.7- 37.8- 5.9-
2024-02-23 02:18 am--------- 39.7- 37.6- 5.9-
2024-02-23 02:12 am--------- 39.7- 37.4- 5.9-
2024-02-23 02:06 am--------- 39.7- 37.4- 5.9-
2024-02-23 02:00 am--------- 39.7- 37.4- 5.9-
2024-02-23 01:54 am--------- 39.7- 37.2- 5.9-
2024-02-23 01:48 am--------- 39.7- 37.4- 5.9-
2024-02-23 01:42 am--------- 39.6- 37.4- 5.9-
2024-02-23 01:36 am--------- 39.4- 37.2- 5.9-
2024-02-23 01:30 am--------- 39.2- 36.9- 5.9-
2024-02-23 01:24 am--------- 39.0- 36.7- 5.9-
2024-02-23 01:18 am--------- 38.8- 36.5- 5.9-
2024-02-23 01:12 am--------- 38.8- 36.5- 5.9-
2024-02-23 01:06 am--------- 38.8- 36.7- 5.9-
2024-02-23 01:00 am--------- 38.8- 36.7- 5.9-
2024-02-23 12:54 am--------- 38.8- 36.7- 5.9-
2024-02-23 12:48 am--------- 39.0- 36.9- 5.9-
2024-02-23 12:42 am--------- 39.0- 36.9- 5.9-
2024-02-23 12:36 am--------- 39.0- 36.5- 5.9-
2024-02-23 12:30 am--------- 39.0- 36.3- 5.9-
2024-02-23 12:24 am--------- 39.0- 36.3- 5.9-
2024-02-23 12:18 am--------- 39.0- 36.5- 5.9-
2024-02-23 12:12 am--------- 39.0- 36.5- 5.9-
2024-02-23 12:06 am--------- 39.0- 36.3- 5.9-
2024-02-23 12:00 am--------- 38.8- 36.3- 5.9-
2024-02-22 11:54 pm--------- 38.8- 36.1- 5.9-
2024-02-22 11:48 pm--------- 38.8- 36.1- 5.9-
2024-02-22 11:42 pm--------- 38.8- 36.3- 5.9-
2024-02-22 11:36 pm--------- 38.8- 36.3- 5.9-
2024-02-22 11:30 pm--------- 38.5- 36.1- 5.9-
2024-02-22 11:24 pm--------- 38.3- 35.6- 5.9-
2024-02-22 11:18 pm--------- 38.5- 35.2- 5.9-
2024-02-22 11:12 pm--------- 38.7- 34.9- 5.9-
2024-02-22 11:06 pm--------- 38.7- 34.9- 5.9-
2024-02-22 11:00 pm--------- 38.7- 34.7- 5.9-
2024-02-22 10:54 pm--------- 38.7- 34.7- 5.9-
2024-02-22 10:48 pm--------- 38.7- 34.7- 5.9-
2024-02-22 10:42 pm--------- 38.5- 34.5- 5.9-
2024-02-22 10:36 pm--------- 38.5- 34.5- 5.9-
2024-02-22 10:30 pm--------- 38.5- 34.5- 5.9-
2024-02-22 10:24 pm--------- 38.3- 34.3- 5.9-
2024-02-22 10:18 pm--------- 38.1- 34.2- 5.9-
2024-02-22 10:12 pm--------- 37.9- 34.0- 5.9-
2024-02-22 10:06 pm--------- 37.9- 34.0- 5.9-
2024-02-22 10:00 pm--------- 37.9- 34.0- 5.9-
2024-02-22 09:54 pm--------- 37.8- 34.0- 5.9-
2024-02-22 09:48 pm--------- 37.8- 34.0- 5.9-
2024-02-22 09:42 pm--------- 37.6- 33.8- 5.9-
2024-02-22 09:36 pm--------- 37.6- 33.8- 5.9-
2024-02-22 09:30 pm--------- 37.4- 33.6- 5.9-
2024-02-22 09:24 pm--------- 37.4- 33.8- 5.9-
2024-02-22 09:18 pm--------- 37.2- 33.6- 5.9-
2024-02-22 09:12 pm--------- 37.2- 33.6- 5.9-
2024-02-22 09:06 pm--------- 37.0- 33.4- 5.9-
2024-02-22 09:00 pm--------- 37.0- 33.3- 5.9-
2024-02-22 08:54 pm--------- 37.0- 33.1- 5.9-
2024-02-22 08:48 pm--------- 37.0- 33.1- 5.9-
2024-02-22 08:42 pm--------- 37.0- 32.9- 5.9-
2024-02-22 08:36 pm--------- 37.0- 32.7- 5.9-
2024-02-22 08:30 pm--------- 37.0- 32.4- 5.9-
2024-02-22 08:24 pm--------- 37.0- 32.2- 5.9-
2024-02-22 08:18 pm--------- 37.0- 32.2- 5.9-
2024-02-22 08:12 pm--------- 36.9- 31.8- 5.9-
2024-02-22 08:06 pm--------- 36.9- 32.0- 5.9-
2024-02-22 08:00 pm--------- 36.7- 31.8- 5.9-
2024-02-22 07:54 pm--------- 36.7- 31.8- 5.9-
2024-02-22 07:48 pm--------- 36.7- 31.8- 5.9-
2024-02-22 07:42 pm--------- 36.7- 31.6- 5.9-
2024-02-22 07:36 pm--------- 36.7- 31.6- 5.9-
2024-02-22 07:30 pm--------- 36.7- 31.6- 5.9-
2024-02-22 07:24 pm--------- 36.5- 31.6- 5.9-
2024-02-22 07:18 pm--------- 36.5- 31.6- 5.9-
2024-02-22 07:12 pm--------- 36.3- 31.5- 5.9-
2024-02-22 07:06 pm--------- 36.3- 31.3- 5.9-
2024-02-22 07:00 pm--------- 36.3- 31.3- 5.9-
2024-02-22 06:54 pm--------- 36.3- 31.3- 5.9-
2024-02-22 06:48 pm--------- 36.3- 31.1- 5.9-
2024-02-22 06:42 pm--------- 36.3- 31.1- 5.9-
2024-02-22 06:36 pm--------- 36.3- 31.3- 5.9-
2024-02-22 05:48 pm--------- 36.3- 30.7- 5.9-
2024-02-22 05:42 pm--------- 36.3- 30.7- 5.9-
2024-02-22 05:36 pm--------- 36.1- 30.4- 5.9-
2024-02-22 05:30 pm--------- 36.1- 30.2- 5.9-
2024-02-22 05:24 pm--------- 36.1- 30.2- 5.9-
2024-02-22 05:18 pm--------- 36.1- 30.2- 5.9-
2024-02-22 05:12 pm--------- 36.1- 30.0- 5.9-
2024-02-22 05:06 pm--------- 36.1- 30.0- 5.9-
2024-02-22 05:00 pm--------- 36.1- 29.8- 5.9-
2024-02-22 04:54 pm--------- 36.1- 29.7- 5.9-
2024-02-22 04:48 pm--------- 36.1- 29.7- 5.9-
2024-02-22 04:42 pm--------- 36.5- 30.6- 5.9-
2024-02-22 04:36 pm--------- 36.7- 31.6- 5.9-
2024-02-22 04:30 pm--------- 36.5- 31.3- 5.9-
2024-02-22 04:24 pm--------- 36.7- 31.6- 5.9-
2024-02-22 04:18 pm--------- 36.5- 30.9- 5.9-
2024-02-22 04:12 pm--------- 36.7- 31.1- 5.9-
2024-02-22 04:06 pm--------- 36.7- 31.6- 5.9-
2024-02-22 04:00 pm--------- 36.7- 31.3- 5.9-
2024-02-22 03:54 pm--------- 36.9- 31.3- 5.9-
2024-02-22 03:48 pm--------- 37.0- 31.3- 5.9-
2024-02-22 03:42 pm--------- 36.7- 30.9- 5.9-
2024-02-22 03:36 pm--------- 36.7- 31.1- 5.9-
2024-02-22 03:30 pm--------- 36.5- 30.7- 5.9-
2024-02-22 03:24 pm--------- 36.5- 30.4- 5.9-
2024-02-22 03:18 pm--------- 36.3- 30.2- 5.9-
2024-02-22 03:12 pm--------- 36.3- 30.4- 5.9-
2024-02-22 03:06 pm--------- 36.1- 30.2- 5.9-
2024-02-22 03:00 pm--------- 36.1- 29.8- 5.9-
2024-02-22 02:54 pm--------- 36.1- 29.7- 5.9-
2024-02-22 02:48 pm--------- 36.1- 29.8- 5.9-
2024-02-22 02:42 pm--------- 36.1- 29.8- 5.9-
2024-02-22 02:36 pm--------- 36.0- 29.3- 5.9-
2024-02-22 02:30 pm--------- 36.0- 29.3- 5.9-
2024-02-22 02:24 pm--------- 36.1- 29.8- 5.9-
2024-02-22 02:18 pm--------- 36.0- 29.3- 5.9-
2024-02-22 02:12 pm--------- 36.0- 29.5- 5.9-
2024-02-22 02:06 pm--------- 35.8- 28.9- 5.9-
2024-02-22 02:00 pm--------- 35.6- 28.9- 5.9-
2024-02-22 01:54 pm--------- 35.4- 28.2- 5.9-
2024-02-22 01:48 pm--------- 35.4- 28.6- 5.9-
2024-02-22 01:42 pm--------- 35.1- 27.9- 5.9-
2024-02-22 01:36 pm--------- 35.2- 28.6- 5.9-
2024-02-22 01:30 pm--------- 35.4- 28.8- 5.9-
2024-02-22 01:24 pm--------- 35.1- 28.0- 5.9-
2024-02-22 01:18 pm--------- 34.9- 27.7- 5.9-
2024-02-22 01:12 pm--------- 34.9- 27.5- 5.9-
2024-02-22 01:06 pm--------- 34.9- 28.0- 5.9-
2024-02-22 01:00 pm--------- 34.7- 27.3- 5.9-
2024-02-22 12:54 pm--------- 34.9- 28.0- 5.9-
2024-02-22 12:48 pm--------- 34.7- 28.0- 5.9-
2024-02-22 12:42 pm--------- 34.5- 27.7- 5.9-
2024-02-22 12:36 pm--------- 34.3- 27.7- 5.9-
2024-02-22 12:30 pm--------- 34.5- 27.7- 5.9-
2024-02-22 12:24 pm--------- 34.5- 27.3- 5.9-
2024-02-22 12:18 pm--------- 34.5- 27.3- 5.9-
2024-02-22 12:12 pm--------- 34.2- 26.6- 5.9-
2024-02-22 12:06 pm--------- 34.0- 26.4- 5.9-
2024-02-22 12:00 pm--------- 34.2- 26.4- 5.9-
2024-02-22 11:54 am--------- 34.2- 26.4- 5.9-
2024-02-22 11:48 am--------- 34.3- 26.6- 5.9-
2024-02-22 11:42 am--------- 34.3- 26.4- 5.9-
2024-02-22 11:36 am--------- 34.3- 25.0- 5.9-
2024-02-22 11:30 am--------- 34.2- 25.3- 5.9-
2024-02-22 11:24 am--------- 33.8- 25.2- 5.9-
2024-02-22 11:18 am--------- 33.6- 25.0- 5.9-
2024-02-22 11:12 am--------- 33.4- 25.0- 5.9-
2024-02-22 11:06 am--------- 33.4- 24.6- 5.9-
2024-02-22 11:00 am--------- 33.6- 25.0- 5.9-
2024-02-22 10:54 am--------- 33.4- 24.8- 5.9-
2024-02-22 10:30 am--------- 33.6- 24.6- 5.9-
2024-02-22 10:24 am--------- 33.8- 24.4- 5.9-
2024-02-22 10:18 am--------- 33.4- 23.7- 5.9-
2024-02-22 10:12 am--------- 33.4- 24.1- 5.9-
2024-02-22 10:06 am--------- 33.4- 23.7- 5.9-
2024-02-22 10:00 am--------- 33.6- 23.5- 5.9-
2024-02-22 09:54 am--------- 33.3- 23.4- 5.9-
2024-02-22 09:48 am--------- 32.7- 23.2- 5.9-
2024-02-22 09:42 am--------- 32.5- 23.5- 5.9-
2024-02-22 09:36 am--------- 33.1- 24.3- 5.9-
2024-02-22 09:30 am--------- 32.5- 24.3- 5.9-
2024-02-22 09:24 am--------- 32.4- 25.3- 5.9-
2024-02-22 09:18 am--------- 32.2- 25.0- 5.9-
2024-02-22 09:12 am--------- 31.6- 25.3- 5.9-
2024-02-22 09:06 am--------- 32.4- 25.5- 5.9-
2024-02-22 09:00 am--------- 32.5- 25.2- 5.9-
2024-02-22 08:54 am--------- 33.3- 26.6- 5.9-
2024-02-22 08:48 am--------- 33.3- 26.6- 5.9-
2024-02-22 08:42 am--------- 31.8- 26.1- 5.9-
2024-02-22 08:36 am--------- 31.8- 26.8- 5.9-
2024-02-22 08:30 am--------- 31.1- 26.2- 5.9-
2024-02-22 08:24 am--------- 31.1- 25.9- 5.9-
2024-02-22 08:18 am--------- 30.6- 25.3- 5.9-
2024-02-22 08:12 am--------- 30.6- 25.3- 5.9-
2024-02-22 08:06 am--------- 30.2- 25.3- 5.9-
2024-02-22 08:00 am--------- 30.2- 25.7- 5.9-
2024-02-22 07:54 am--------- 30.0- 25.3- 5.9-